Du har inga inställningar för hoppväder.nu

Hoppväder.nu

Senast uppdaterat 06:29

UTC-tid

2020-01-29 kl. 05:29


Sol och måne

Solen går upp 8:06 och går ner 16:33 (beräknade cirkatider)
Nästa fullmåne blir om 11 dagar (2020-02-09)

METAR

ESMS (Malmö)
(9 minuter sedan)
ESMS 290520Z 26010KT CAVOK 03/02 Q0990=



ESMK (Everöd)
(9 minuter sedan)
ESMK 290520Z 26007KT 230V290 9999 BKN014 BKN031 04/03 Q0989=



ESTL (Ljungbyhed)
(9 minuter sedan)
ESTL 290520Z AUTO 24010KT 9999 FEW009/// SCT033/// 04/03 Q0989=



EKCH (Köpenhamn)
(39 minuter sedan)
EKCH 290450Z AUTO 25010KT 9999 NCD 03/02 Q0990 NOSIG=



ESTA (Ängelholm)
(9 minuter sedan)
ESTA 290520Z 25009KT 9999 BKN013 OVC017 04/03 Q0988=



TAF

ESMS (Malmö)
(10 minuter sedan)
ESMS 290519Z 2906/3006 26008KT 9999 BKN020 TEMPO 2906/2924 4000 -SHRA BR BKN006 SCT015CB BECMG 2921/2924 26014G25KT BECMG 3003/3006 23010KT 3000 -RA BR BKN005 PROB40 3005/3006 RASN=



ESMK (Everöd)
(67 minuter sedan)
ESMK 290422Z 2905/2912 27005KT 9999 BKN030 TEMPO 2905/2909 2500 BR BKN008=



ESTL (Ljungbyhed)
ESTL



EKCH (Köpenhamn)
(375 minuter sedan)
EKCH 282314Z 2900/2924 25008KT 9999 BKN025 TEMPO 2900/2924 4000 -SHRA BR BKN008 SCT015CB BECMG 2921/2924 26015G25KT=



ESTA (Ängelholm)
ESTA





Kodnycklar till TAF och METAR






LHP

(Eslöv är område J3c i Hela Område E)







Spotting

Hur fungerar spotthjälpen och Vindkartan?

Markvind är ca 0 m/s.
Vind på 600 m ca 0 m/s.
Vind på 1500 m ca 0 m/s.
Vind på 3000 m ca 0 m/s.
Caravanen flyger ca 41 m/s över marken på finalen.
Du driver ca 0 m bakåt i frifall. (0 m)
Lämplig spot är 7 sekunder eller 288 m innan gropen.
(-7s eller -288 m)
För små grupper eller ensamhoppare bör man vänta 4-5 sekunder mellan grupperna.
För större grupper bör man vänta 7-9 sekunder mellan grupperna.


Vindkartan

Senast uppdaterad 06:29




All data kommer från LFV.se